Annette Island, AK

12:50 AM AKDT on August 02, 2014 (GMT -0800)
Hydaburg (PAHY) Elev 0 ft | 55.21 °N, 132.83 °W | Change Station

Current weather conditions updated 14 minutes ago

Clear
Clear
54 °F
Feels Like 54 °F
N
0
Wind Variable Wind from North

Today is forecast to be nearly the same temperature as yesterday.

Today
High -- | Low -- °F
--% Chance of Precip.
Yesterday
High -- | Low -- °F
Precip. -- in
4:57 AM 8:46 PM
Waxing Crescent, 34% visible
Pressure 30.12 in
Visibility 10.0 miles
Clouds Clear
Dew Point 45 °F
Humidity 72%
Rainfall 0.00 in
Snow Depth Not available.
UV 0 out of 12
Pollen Not available.
Air Quality Not available.
Flu Activity Not available.
METAR PAHY 020836Z AUTO 00000KT 10SM CLR 12/07 A3012 RMK AO1

More Conditions Fewer Conditions

Pressure 30.12 in
Visibility 10.0 miles
Clouds Clear
Dew Point 45 °F
Humidity 72%
Rainfall 0.00 in
Snow Depth Not available.
UV 0 out of 12
Pollen Not available.
Air Quality Not available.
Flu Activity Not available.
METAR PAHY 020836Z AUTO 00000KT 10SM CLR 12/07 A3012 RMK AO1

More Conditions Fewer Conditions

10-Day Weather Forecast

Almanac

Astronomy

Aug. 02, 2014 Rise Set
Actual Time 4:57 AM AKDT 8:46 PM AKDT
Civil Twilight 4:10 AM AKDT 9:32 PM AKDT
Nautical Twilight 3:04 AM AKDT 10:37 PM AKDT
Astronomical Twilight 1:25 AM AKDT 12:20 AM AKDT
Moon 12:39 PM AKDT 10:52 PM AKDT
Length of Visible Light 17h 21m
Length of Day
15h 49m
Tomorrow will be 3m 47s shorter.
Waxing Crescent, 34% of the Moon is Illuminated
Today
Waxing Crescent
Aug 3
First Quarter
Aug 10
Full
Aug 17
Last Quarter
Aug 25
New

Today's Extremes

State Highs State Lows

Community

WunderPhotos

Upload Photos

1,739,850 photos uploaded!

Nearby

Snow Depth

Station Depth Elevation
Long Lake 0 in 820 ft
Upper Tsaina River 0 in 1750 ft
Moraine 0 in 2100 ft
Nuka Glacier 95 in 1250 ft
Grouse Creek Divide 0 in 700 ft

Earthquake Activity

City Distance Mag. Time & Date
No recent earthquake activity has been reported nearby.
Minimum magnitude displayed is 2.5.

Coastal Water Temperatures

Place Temperature
No Stations Reporting

Nearby Weather Stations

Station Location Temp. Dew Point Humidity Wind Precip. Elev Updated Type
CRN NOAA/NWS ANNETTE ISLAND 6 S AK , Metlakatla, AK 62 °F - - North  at  - 0.00 in / hr 104 ft 11:30 PM AKDT MADIS
Bailey Blvd, Ketchikan, AK 61.5 °F 54 °F 76% North  at  0.0 mph 0.00 in / hr 240 ft 12:50 AM AKDT Normal
MARITIME , McInnes Island 61 °F - - WNW  at  25 mph 0.00 in / hr 0 ft 1:00 AM PDT MADIS

Show More Stations Show Fewer Stations